Time;durP1;ratioP1;P1;durP2;ratioP2;P2;SDS_P1;SDS_P2;PMS_P1;PMS_P2;Temp;Humidity;BMP_temperature;BMP_pressure;BME280_temperature;BME280_humidity;BME280_pressure;Samples;Min_cycle;Max_cycle;Signal;HPM_P1;HPM_P2
2022/08/18 00:00:44;;;;;;;20.05;17.27;;;24.10;74.10;;;;;;6109949;23;20155;-86
2022/08/18 00:03:11;;;;;;;20.30;17.63;;;24.10;74.10;;;;;;6110097;23;20186;-86
2022/08/18 00:05:37;;;;;;;20.17;17.23;;;24.10;74.10;;;;;;6134228;23;20166;-86
2022/08/18 00:08:03;;;;;;;21.08;17.30;;;24.10;74.10;;;;;;6159939;23;20516;-86
2022/08/18 00:10:28;;;;;;;20.42;17.50;;;24.10;74.20;;;;;;6159925;23;20654;-85
2022/08/18 00:12:54;;;;;;;20.23;17.83;;;24.10;74.20;;;;;;6159872;23;20163;-86
2022/08/18 00:15:20;;;;;;;22.17;18.05;;;24.10;74.20;;;;;;6135179;23;20153;-87
2022/08/18 00:17:46;;;;;;;20.52;17.65;;;24.10;74.20;;;;;;6135090;23;20154;-86
2022/08/18 00:20:16;;;;;;;20.42;17.83;;;24.10;74.20;;;;;;6159729;23;20138;-86
2022/08/18 00:22:43;;;;;;;21.55;18.17;;;24.00;74.10;;;;;;6109969;23;20213;-86
2022/08/18 00:25:11;;;;;;;20.27;17.65;;;24.10;74.30;;;;;;6109823;23;20216;-86
2022/08/18 00:27:40;;;;;;;20.75;17.65;;;24.00;74.30;;;;;;6134350;23;20154;-86
2022/08/18 00:30:09;;;;;;;20.80;17.50;;;24.00;74.20;;;;;;6134505;23;20151;-86
2022/08/18 00:32:38;;;;;;;21.10;17.90;;;24.00;74.30;;;;;;6134472;23;20158;-86
2022/08/18 00:35:12;;;;;;;20.35;17.80;;;24.00;74.30;;;;;;6135309;23;20532;-86
2022/08/18 00:37:39;;;;;;;21.00;18.15;;;24.00;74.30;;;;;;6159692;23;20240;-86
2022/08/18 00:40:06;;;;;;;20.70;17.98;;;24.00;74.40;;;;;;6160098;23;20189;-86
2022/08/18 00:42:32;;;;;;;20.10;17.83;;;24.00;74.40;;;;;;6134848;23;20174;-86
2022/08/18 00:45:03;;;;;;;20.00;17.50;;;24.00;74.40;;;;;;6134788;23;20178;-86
2022/08/18 00:47:29;;;;;;;21.40;18.20;;;24.00;74.40;;;;;;6159893;23;20138;-86
2022/08/18 00:49:54;;;;;;;19.23;16.70;;;24.00;74.50;;;;;;6135692;23;20153;-86
2022/08/18 00:52:21;;;;;;;20.38;17.27;;;24.00;74.40;;;;;;6135218;23;20166;-86
2022/08/18 00:54:48;;;;;;;20.52;17.05;;;24.00;74.40;;;;;;6133965;23;20213;-86
2022/08/18 00:57:15;;;;;;;22.05;17.83;;;24.00;74.50;;;;;;6109098;23;20246;-86
2022/08/18 00:59:49;;;;;;;20.08;17.42;;;24.00;74.40;;;;;;6109666;23;20159;-86
2022/08/18 01:02:19;;;;;;;21.27;17.60;;;24.00;74.50;;;;;;6087331;23;20609;-86
2022/08/18 01:04:54;;;;;;;21.20;17.83;;;24.00;74.40;;;;;;6134319;23;20157;-86
2022/08/18 01:07:28;;;;;;;19.73;17.25;;;23.90;74.30;;;;;;6160012;23;20165;-86
2022/08/18 01:09:57;;;;;;;20.20;17.23;;;23.90;74.40;;;;;;6159884;23;20197;-86
2022/08/18 01:12:24;;;;;;;19.33;17.23;;;24.00;74.50;;;;;;6159784;23;20138;-86
2022/08/18 01:14:49;;;;;;;20.90;17.95;;;24.00;74.40;;;;;;6135282;23;20158;-86
2022/08/18 01:22:57;;;;;;;20.55;17.25;;;24.00;74.60;;;;;;6163573;23;20194;-86
2022/08/18 01:28:08;;;;;;;21.83;17.77;;;24.00;74.60;;;;;;6163692;23;20142;-86
2022/08/18 01:30:47;;;;;;;22.33;17.92;;;23.90;74.60;;;;;;6159519;23;20142;-86
2022/08/18 01:33:13;;;;;;;20.42;17.10;;;23.90;74.60;;;;;;6135195;23;20513;-86
2022/08/18 01:35:40;;;;;;;20.98;17.90;;;23.90;74.50;;;;;;6135208;23;20170;-86
2022/08/18 01:38:06;;;;;;;20.63;17.23;;;23.90;74.50;;;;;;6159287;23;20205;-86
2022/08/18 01:40:31;;;;;;;22.48;17.77;;;24.00;74.70;;;;;;6159391;23;20523;-85
2022/08/18 01:42:58;;;;;;;19.70;16.98;;;23.90;74.60;;;;;;6135140;23;20736;-86
2022/08/18 01:45:24;;;;;;;20.92;17.67;;;23.90;74.60;;;;;;6159253;23;20138;-86
2022/08/18 01:47:50;;;;;;;21.45;17.98;;;23.90;74.70;;;;;;6159184;23;20498;-86
2022/08/18 01:50:16;;;;;;;19.52;16.88;;;23.90;74.70;;;;;;6134412;23;20242;-86
2022/08/18 01:52:42;;;;;;;20.00;17.73;;;24.00;74.80;;;;;;6134627;23;20225;-86
2022/08/18 01:55:08;;;;;;;19.38;17.13;;;23.90;74.80;;;;;;6159563;23;20143;-86
2022/08/18 01:57:41;;;;;;;20.25;17.65;;;23.90;74.80;;;;;;6159068;23;20146;-87
2022/08/18 02:00:09;;;;;;;21.65;18.25;;;23.90;74.80;;;;;;6135939;23;20155;-86
2022/08/18 02:02:36;;;;;;;20.30;17.08;;;23.90;74.80;;;;;;6159506;23;20172;-86
2022/08/18 02:05:04;;;;;;;21.92;17.73;;;23.80;74.80;;;;;;6159088;23;20189;-86
2022/08/18 02:07:30;;;;;;;20.60;17.67;;;23.90;74.90;;;;;;6134109;23;20147;-86
2022/08/18 02:09:57;;;;;;;20.45;17.63;;;23.90;74.90;;;;;;6158831;23;20233;-85
2022/08/18 02:12:23;;;;;;;20.83;17.42;;;23.90;74.90;;;;;;6134380;23;20213;-86
2022/08/18 02:14:50;;;;;;;20.35;18.10;;;23.90;74.90;;;;;;6159452;23;20143;-86
2022/08/18 02:17:16;;;;;;;20.63;17.75;;;23.90;74.90;;;;;;6159662;23;20170;-86
2022/08/18 02:19:47;;;;;;;19.98;17.48;;;23.90;74.90;;;;;;6185224;23;20496;-87
2022/08/18 02:22:15;;;;;;;21.27;18.08;;;23.90;75.70;;;;;;6085383;23;20232;-86
2022/08/18 02:24:43;;;;;;;19.42;16.55;;;23.90;74.90;;;;;;6158880;23;20142;-86
2022/08/18 02:27:12;;;;;;;20.60;17.17;;;23.90;74.90;;;;;;6133787;23;20151;-86
2022/08/18 02:29:39;;;;;;;20.85;18.13;;;23.90;75.00;;;;;;6086544;23;20158;-86
2022/08/18 02:32:07;;;;;;;19.63;16.98;;;23.90;74.90;;;;;;6111138;23;20213;-86
2022/08/18 02:34:35;;;;;;;20.17;17.33;;;23.90;75.00;;;;;;6110826;23;20154;-86
2022/08/18 02:37:03;;;;;;;20.15;16.98;;;23.80;74.90;;;;;;6110930;23;20158;-86
2022/08/18 02:39:32;;;;;;;21.23;17.50;;;23.80;75.00;;;;;;6111136;23;20159;-87
2022/08/18 02:41:59;;;;;;;21.38;17.27;;;23.80;74.90;;;;;;6111197;23;20605;-86
2022/08/18 02:44:26;;;;;;;21.67;17.88;;;23.80;75.00;;;;;;6135438;23;20201;-86
2022/08/18 02:46:54;;;;;;;19.95;17.20;;;23.80;75.40;;;;;;6135008;23;20579;-86
2022/08/18 02:49:21;;;;;;;20.83;17.70;;;23.80;75.00;;;;;;6110418;23;20486;-86
2022/08/18 02:51:49;;;;;;;19.27;16.85;;;23.80;75.00;;;;;;6110380;23;20209;-86
2022/08/18 02:54:18;;;;;;;20.67;17.33;;;23.80;75.10;;;;;;6135596;23;20605;-86
2022/08/18 02:56:45;;;;;;;20.67;17.85;;;23.80;75.10;;;;;;6111423;23;20162;-86
2022/08/18 02:59:14;;;;;;;20.02;17.13;;;23.80;75.10;;;;;;6110393;23;20201;-86
2022/08/18 03:01:43;;;;;;;19.88;17.13;;;23.80;75.10;;;;;;6135879;23;20606;-85
2022/08/18 03:04:13;;;;;;;19.08;16.58;;;23.80;75.60;;;;;;6135385;23;20162;-86
2022/08/18 03:06:39;;;;;;;19.92;17.13;;;23.80;75.20;;;;;;6111781;23;20157;-86
2022/08/18 03:09:06;;;;;;;20.15;17.02;;;23.80;75.20;;;;;;6134787;23;20195;-87
2022/08/18 03:11:34;;;;;;;19.67;16.50;;;23.70;75.10;;;;;;6136121;23;20471;-86
2022/08/18 03:14:00;;;;;;;20.33;17.20;;;23.80;75.10;;;;;;6160386;23;20166;-86
2022/08/18 03:16:26;;;;;;;19.98;17.08;;;23.80;75.20;;;;;;6135648;23;20151;-86
2022/08/18 03:18:52;;;;;;;21.20;16.77;;;23.80;75.10;;;;;;6160368;23;20571;-86
2022/08/18 03:21:21;;;;;;;19.48;16.55;;;23.80;75.20;;;;;;6135423;23;20194;-86
2022/08/18 03:23:48;;;;;;;19.80;17.30;;;23.80;75.20;;;;;;6160365;23;20131;-85
2022/08/18 03:26:14;;;;;;;20.77;17.63;;;23.80;75.20;;;;;;6160668;23;20174;-86
2022/08/18 03:28:42;;;;;;;21.75;17.75;;;23.80;75.20;;;;;;6160328;23;20130;-87
2022/08/18 03:31:08;;;;;;;20.23;17.20;;;23.80;75.20;;;;;;6136191;23;20249;-86
2022/08/18 03:33:34;;;;;;;21.30;18.02;;;23.80;75.20;;;;;;6160161;23;20131;-86
2022/08/18 03:36:11;;;;;;;19.92;17.15;;;23.80;75.20;;;;;;6160134;23;20134;-86
2022/08/18 03:38:37;;;;;;;21.23;17.73;;;23.70;75.30;;;;;;6160506;23;20185;-86
2022/08/18 03:41:05;;;;;;;19.25;16.60;;;23.80;75.30;;;;;;6160201;23;20583;-87
2022/08/18 03:43:30;;;;;;;20.13;16.77;;;23.70;75.30;;;;;;6160422;23;20131;-86
2022/08/18 03:46:03;;;;;;;18.98;16.67;;;23.80;75.40;;;;;;6186712;23;20135;-86
2022/08/18 03:48:29;;;;;;;19.65;16.92;;;23.80;75.40;;;;;;6135244;23;20158;-86
2022/08/18 03:50:54;;;;;;;19.63;16.83;;;23.70;75.30;;;;;;6159994;23;20131;-86
2022/08/18 03:53:20;;;;;;;20.38;17.58;;;23.70;75.40;;;;;;6186574;23;20131;-86
2022/08/18 03:55:46;;;;;;;20.27;17.30;;;23.70;75.40;;;;;;6160433;23;20131;-86
2022/08/18 03:58:13;;;;;;;20.15;17.08;;;23.70;75.30;;;;;;6136353;23;20567;-86
2022/08/18 04:00:39;;;;;;;20.75;17.65;;;23.70;75.30;;;;;;6160377;23;20237;-86
2022/08/18 04:03:05;;;;;;;21.77;17.55;;;23.70;75.30;;;;;;6159807;23;20693;-86
2022/08/18 04:05:31;;;;;;;18.02;15.93;;;23.70;75.40;;;;;;6135239;23;20601;-87
2022/08/18 04:07:57;;;;;;;19.70;16.85;;;23.70;75.40;;;;;;6135353;23;20155;-86
2022/08/18 04:10:23;;;;;;;19.42;16.98;;;23.70;75.40;;;;;;6160479;23;20139;-86
2022/08/18 04:12:58;;;;;;;20.77;17.40;;;23.70;75.40;;;;;;6159785;23;20135;-87
2022/08/18 04:15:24;;;;;;;19.20;16.52;;;23.70;75.40;;;;;;6135236;23;20225;-86
2022/08/18 04:17:50;;;;;;;20.67;17.17;;;23.70;75.40;;;;;;6160216;23;20636;-86
2022/08/18 04:20:15;;;;;;;19.20;16.52;;;23.70;75.40;;;;;;6135045;23;20490;-85
2022/08/18 04:22:41;;;;;;;19.63;16.95;;;23.70;75.40;;;;;;6134773;23;20228;-87
2022/08/18 04:25:08;;;;;;;19.17;15.80;;;23.70;75.40;;;;;;6159886;23;20133;-85
2022/08/18 04:27:34;;;;;;;19.92;16.48;;;23.70;75.40;;;;;;6159951;23;20494;-85
2022/08/18 04:30:00;;;;;;;17.98;15.55;;;23.70;75.40;;;;;;6159967;23;20161;-86
2022/08/18 04:32:26;;;;;;;18.73;16.73;;;23.70;75.40;;;;;;6159642;23;20134;-86
2022/08/18 04:34:51;;;;;;;18.80;15.93;;;23.70;75.50;;;;;;6134817;23;20151;-86
2022/08/18 04:37:17;;;;;;;19.55;17.05;;;23.70;75.50;;;;;;6159456;23;20135;-86
2022/08/18 04:39:43;;;;;;;21.00;17.52;;;23.70;75.40;;;;;;6159582;23;20135;-86
2022/08/18 04:42:08;;;;;;;19.67;16.60;;;23.70;75.40;;;;;;6159547;23;20174;-86
2022/08/18 04:44:36;;;;;;;19.15;16.52;;;23.70;75.40;;;;;;6159648;23;20171;-86
2022/08/18 04:47:02;;;;;;;20.20;17.35;;;23.70;75.30;;;;;;6135133;23;20143;-86
2022/08/18 04:49:30;;;;;;;19.27;16.75;;;23.60;75.40;;;;;;6135160;23;20205;-86
2022/08/18 04:54:38;;;;;;;19.80;16.27;;;23.70;75.50;;;;;;6162990;23;20192;-86
2022/08/18 04:57:08;;;;;;;18.60;16.15;;;23.70;75.40;;;;;;6135142;23;20229;-86
2022/08/18 04:59:34;;;;;;;19.13;16.65;;;23.70;75.30;;;;;;6135285;23;20221;-86
2022/08/18 05:02:00;;;;;;;19.15;15.88;;;23.70;75.20;;;;;;6159223;23;20541;-86
2022/08/18 05:04:28;;;;;;;18.63;16.15;;;23.70;75.20;;;;;;6159408;23;20134;-86
2022/08/18 05:06:53;;;;;;;19.23;15.63;;;23.80;75.00;;;;;;6159809;23;20131;-86
2022/08/18 05:09:19;;;;;;;17.88;15.57;;;23.80;74.70;;;;;;6186155;23;20240;-86
2022/08/18 05:11:45;;;;;;;16.20;14.50;;;23.90;74.30;;;;;;6159677;23;20509;-86
2022/08/18 05:14:11;;;;;;;16.98;15.15;;;23.90;74.40;;;;;;6159388;23;20243;-87
2022/08/18 05:16:36;;;;;;;18.02;15.45;;;23.90;74.30;;;;;;6159175;23;20139;-86
2022/08/18 05:19:03;;;;;;;18.45;15.90;;;23.80;74.70;;;;;;6186003;23;20158;-87
2022/08/18 05:21:29;;;;;;;18.85;15.38;;;23.80;74.80;;;;;;6134549;23;20189;-87
2022/08/18 05:23:55;;;;;;;18.20;15.35;;;23.80;74.90;;;;;;6134651;23;20142;-86
2022/08/18 05:26:20;;;;;;;18.90;15.75;;;23.80;74.90;;;;;;6134578;23;20536;-86
2022/08/18 05:28:46;;;;;;;16.77;14.90;;;23.80;75.00;;;;;;6159481;23;20165;-86
2022/08/18 05:31:14;;;;;;;18.10;15.50;;;23.90;75.00;;;;;;6159313;23;20131;-87
2022/08/18 05:33:42;;;;;;;16.60;14.52;;;23.90;74.80;;;;;;6135033;23;20143;-87
2022/08/18 05:36:31;;;;;;;16.95;15.13;;;23.80;74.80;;;;;;6134202;23;20150;-86
2022/08/18 05:39:23;;;;;;;17.08;14.48;;;23.80;74.90;;;;;;6043171;23;20193;-87
2022/08/18 05:42:00;;;;;;;18.35;15.50;;;23.70;75.10;;;;;;6114393;23;20178;-86
2022/08/18 05:44:30;;;;;;;16.48;14.68;;;23.70;75.20;;;;;;6135371;23;20146;-86
2022/08/18 05:47:00;;;;;;;16.45;14.65;;;23.70;75.10;;;;;;6134600;23;20578;-87
2022/08/18 05:49:27;;;;;;;17.40;15.10;;;23.80;75.00;;;;;;6086288;23;20587;-86
2022/08/18 05:52:00;;;;;;;16.58;14.40;;;23.70;75.00;;;;;;6109215;23;20228;-86
2022/08/18 05:57:16;;;;;;;16.98;15.10;;;23.80;74.80;;;;;;6119344;23;20154;-87
2022/08/18 05:59:42;;;;;;;17.90;15.10;;;23.80;74.90;;;;;;6133882;23;20182;-86
2022/08/18 06:02:15;;;;;;;15.73;13.90;;;23.80;74.80;;;;;;6108819;23;20661;-85
2022/08/18 06:04:48;;;;;;;16.48;14.68;;;23.70;74.70;;;;;;6160479;23;20186;-86
2022/08/18 06:07:17;;;;;;;15.32;13.73;;;23.80;74.70;;;;;;6161416;23;20215;-87
2022/08/18 06:09:49;;;;;;;15.90;14.20;;;23.80;74.80;;;;;;6159142;23;20505;-86
2022/08/18 06:12:37;;;;;;;16.85;14.52;;;23.80;74.40;;;;;;6134918;23;20151;-86
2022/08/18 06:15:20;;;;;;;16.13;14.43;;;23.80;74.40;;;;;;6159615;23;20131;-86
2022/08/18 06:18:14;;;;;;;16.25;13.80;;;23.80;74.30;;;;;;6067194;23;20162;-86
2022/08/18 06:21:15;;;;;;;15.63;14.02;;;23.90;74.10;;;;;;6186625;23;20162;-86
2022/08/18 06:23:54;;;;;;;15.00;13.40;;;23.90;74.10;;;;;;6160952;23;20166;-86
2022/08/18 06:26:54;;;;;;;15.45;13.68;;;23.90;74.30;;;;;;6086824;23;20182;-85
2022/08/18 06:29:40;;;;;;;15.00;13.40;;;23.90;74.00;;;;;;6135733;23;20155;-86
2022/08/18 06:32:34;;;;;;;15.85;13.57;;;23.90;73.90;;;;;;6135678;23;20481;-86
2022/08/18 06:35:12;;;;;;;14.27;12.75;;;23.80;73.90;;;;;;6111255;23;20154;-86
2022/08/18 06:40:40;;;;;;;15.13;13.50;;;23.90;73.80;;;;;;6187411;23;20162;-86
2022/08/18 06:43:11;;;;;;;17.20;14.43;;;23.90;73.60;;;;;;6161377;23;20621;-86
2022/08/18 06:45:40;;;;;;;14.45;12.95;;;23.90;73.50;;;;;;6161428;23;20136;-85
2022/08/18 06:48:17;;;;;;;15.52;13.85;;;23.90;73.50;;;;;;6111503;23;20151;-87
2022/08/18 06:50:55;;;;;;;16.05;13.88;;;23.90;73.30;;;;;;6088784;23;20161;-86
2022/08/18 06:53:25;;;;;;;14.75;13.13;;;23.90;73.20;;;;;;6087608;23;20150;-86
2022/08/18 06:55:52;;;;;;;15.25;13.40;;;23.90;73.10;;;;;;6111560;23;20154;-86
2022/08/18 06:58:25;;;;;;;14.52;12.98;;;24.00;73.10;;;;;;6110861;23;20161;-86
2022/08/18 07:00:59;;;;;;;14.55;13.05;;;23.90;73.20;;;;;;6111690;23;20147;-86
2022/08/18 07:03:40;;;;;;;15.93;13.88;;;23.80;73.30;;;;;;6111923;23;20645;-87
2022/08/18 07:06:28;;;;;;;14.45;12.95;;;23.80;73.20;;;;;;6187014;23;20138;-87
2022/08/18 07:09:19;;;;;;;14.70;13.20;;;23.90;73.50;;;;;;6031330;23;20200;-87
2022/08/18 07:12:10;;;;;;;13.48;12.05;;;23.90;73.10;;;;;;6014152;23;20162;-87
2022/08/18 07:14:50;;;;;;;17.20;12.68;;;24.00;72.70;;;;;;5990548;23;20150;-87
2022/08/18 07:17:28;;;;;;;15.52;13.88;;;24.10;72.40;;;;;;5967644;23;20233;-86
2022/08/18 07:19:58;;;;;;;16.08;14.00;;;24.10;72.10;;;;;;6015101;23;20200;-87
2022/08/18 07:22:25;;;;;;;14.23;12.73;;;24.20;71.90;;;;;;5967864;23;20205;-86
2022/08/18 07:24:53;;;;;;;14.43;13.00;;;24.20;71.90;;;;;;6014579;23;20142;-87
2022/08/18 07:27:21;;;;;;;14.35;12.85;;;24.20;71.90;;;;;;6038205;23;20180;-87
2022/08/18 07:30:08;;;;;;;14.82;13.07;;;24.30;71.60;;;;;;6014703;23;20158;-87
2022/08/18 07:32:48;;;;;;;14.00;12.50;;;24.30;71.40;;;;;;6038519;23;20176;-86
2022/08/18 07:35:30;;;;;;;14.30;12.63;;;24.30;71.20;;;;;;6038430;23;20154;-86
2022/08/18 07:38:14;;;;;;;15.07;13.48;;;24.30;71.10;;;;;;6014515;23;20213;-86
2022/08/18 07:41:06;;;;;;;14.38;12.88;;;24.30;71.40;;;;;;6024834;23;20156;-87
2022/08/18 07:44:02;;;;;;;13.07;11.73;;;24.30;71.10;;;;;;6051525;23;20165;-86
2022/08/18 07:46:47;;;;;;;13.90;12.40;;;24.30;71.00;;;;;;6051327;23;20149;-87
2022/08/18 07:49:32;;;;;;;13.43;12.02;;;24.30;70.90;;;;;;6102381;23;20174;-86
2022/08/18 07:52:17;;;;;;;13.07;11.68;;;24.30;70.60;;;;;;6136041;23;20155;-87
2022/08/18 07:55:18;;;;;;;14.00;12.50;;;24.30;70.60;;;;;;6137092;23;20237;-86
2022/08/18 07:57:54;;;;;;;13.90;12.40;;;24.40;70.70;;;;;;6071557;23;20158;-86
2022/08/18 08:00:28;;;;;;;13.98;12.45;;;24.30;70.60;;;;;;6134408;23;20220;-88
2022/08/18 08:03:25;;;;;;;13.60;12.20;;;24.40;70.90;;;;;;6135843;23;20629;-87
2022/08/18 08:06:04;;;;;;;13.63;12.23;;;24.50;70.20;;;;;;6093072;23;20147;-87
2022/08/18 08:08:57;;;;;;;13.38;12.07;;;24.50;69.80;;;;;;6087127;23;20240;-86
2022/08/18 08:11:51;;;;;;;12.68;11.38;;;24.50;69.40;;;;;;6164530;23;20559;-86
2022/08/18 08:14:29;;;;;;;13.90;12.32;;;24.50;69.60;;;;;;6185952;23;20151;-87
2022/08/18 08:17:16;;;;;;;13.00;11.65;;;24.50;69.60;;;;;;6135843;23;20488;-87
2022/08/18 08:19:58;;;;;;;13.60;12.20;;;24.60;69.50;;;;;;6139925;23;20230;-86
2022/08/18 08:22:42;;;;;;;14.23;12.80;;;24.60;69.10;;;;;;6048576;23;20702;-87
2022/08/18 08:25:18;;;;;;;13.02;11.70;;;24.50;69.60;;;;;;5993449;23;20150;-87
2022/08/18 08:27:59;;;;;;;15.13;12.38;;;24.50;69.70;;;;;;5967672;23;20657;-87
2022/08/18 08:30:28;;;;;;;13.38;12.07;;;24.50;69.60;;;;;;5969016;23;20158;-87
2022/08/18 08:33:09;;;;;;;13.75;11.90;;;24.50;69.60;;;;;;5990522;23;20157;-87
2022/08/18 08:35:44;;;;;;;14.35;12.82;;;24.50;69.30;;;;;;5994696;23;20158;-87
2022/08/18 08:38:15;;;;;;;16.38;12.93;;;24.40;69.60;;;;;;5991357;23;20165;-87
2022/08/18 08:41:04;;;;;;;13.27;11.95;;;24.30;69.60;;;;;;5970531;23;20606;-86
2022/08/18 08:43:37;;;;;;;13.52;12.13;;;24.30;70.00;;;;;;5971060;23;20717;-86
2022/08/18 08:46:16;;;;;;;13.98;12.45;;;24.30;70.10;;;;;;6015533;23;20159;-86
2022/08/18 08:48:58;;;;;;;13.85;12.45;;;24.20;69.80;;;;;;5969795;23;20494;-86
2022/08/18 08:51:37;;;;;;;13.45;12.05;;;24.30;69.90;;;;;;6016186;23;20158;-86
2022/08/18 08:54:09;;;;;;;12.75;11.45;;;24.30;69.70;;;;;;6066101;23;20207;-87
2022/08/18 08:56:44;;;;;;;13.25;11.85;;;24.30;69.60;;;;;;6095447;23;20157;-87
2022/08/18 08:59:14;;;;;;;13.45;12.05;;;24.30;69.60;;;;;;6135704;23;20601;-87
2022/08/18 09:02:17;;;;;;;13.68;12.27;;;24.30;69.50;;;;;;6137959;23;20178;-87
2022/08/18 09:05:02;;;;;;;13.80;12.32;;;24.30;69.30;;;;;;6118666;23;20469;-87
2022/08/18 09:07:49;;;;;;;12.98;11.60;;;24.30;69.40;;;;;;6146119;23;20174;-87
2022/08/18 09:10:38;;;;;;;12.25;11.05;;;24.30;69.30;;;;;;6085795;23;20467;-88
2022/08/18 09:13:48;;;;;;;13.18;11.80;;;24.30;69.20;;;;;;6108285;23;20167;-87
2022/08/18 09:16:47;;;;;;;13.15;11.77;;;24.30;69.30;;;;;;6134427;23;20155;-87
2022/08/18 09:19:26;;;;;;;13.88;12.13;;;24.30;69.30;;;;;;6133842;23;20159;-87
2022/08/18 09:22:17;;;;;;;12.73;11.43;;;24.30;69.50;;;;;;6130117;23;20205;-87
2022/08/18 09:24:47;;;;;;;13.65;12.25;;;24.30;69.40;;;;;;6157052;23;20162;-87
2022/08/18 09:27:31;;;;;;;13.48;12.07;;;24.40;69.20;;;;;;6130359;23;20139;-87
2022/08/18 09:30:03;;;;;;;13.13;11.73;;;24.40;68.90;;;;;;6130097;23;20250;-86
2022/08/18 09:32:37;;;;;;;12.43;11.13;;;24.40;68.80;;;;;;6129389;23;20155;-87
2022/08/18 09:35:28;;;;;;;13.57;12.18;;;24.50;68.90;;;;;;6129905;23;20147;-86
2022/08/18 09:43:38;;;;;;;13.20;11.90;;;24.40;68.90;;;;;;6156122;23;20564;-87
2022/08/18 09:46:04;;;;;;;12.95;11.55;;;24.40;68.70;;;;;;6156839;23;20443;-87
2022/08/18 09:48:35;;;;;;;12.95;11.65;;;24.50;68.40;;;;;;6107303;23;20154;-86
2022/08/18 09:51:22;;;;;;;12.55;11.32;;;24.40;68.30;;;;;;6156092;23;20132;-87
2022/08/18 09:54:05;;;;;;;13.27;11.88;;;24.40;68.50;;;;;;6156140;23;20154;-86
2022/08/18 09:57:04;;;;;;;13.18;11.77;;;24.40;68.40;;;;;;6157778;23;20472;-86
2022/08/18 09:59:50;;;;;;;13.13;11.80;;;24.40;68.40;;;;;;6157069;23;20147;-86
2022/08/18 10:02:48;;;;;;;12.35;11.07;;;24.40;68.40;;;;;;6157791;23;20159;-87
2022/08/18 10:05:26;;;;;;;11.73;10.63;;;24.40;68.40;;;;;;6156384;23;20212;-86
2022/08/18 10:08:08;;;;;;;13.18;11.80;;;24.40;68.40;;;;;;6132433;23;20238;-86
2022/08/18 10:10:48;;;;;;;12.43;11.02;;;24.40;68.10;;;;;;6163661;23;20138;-87
2022/08/18 10:13:35;;;;;;;12.52;11.18;;;24.40;68.40;;;;;;6162175;23;20225;-87
2022/08/18 10:16:18;;;;;;;12.20;11.00;;;24.40;68.50;;;;;;6142258;23;20154;-87
2022/08/18 10:19:26;;;;;;;12.90;11.60;;;24.30;68.50;;;;;;6187428;23;20222;-86
2022/08/18 10:22:05;;;;;;;12.60;11.40;;;24.30;68.50;;;;;;6161222;23;20217;-87
2022/08/18 10:24:44;;;;;;;12.90;11.60;;;24.30;68.30;;;;;;6136855;23;20146;-86
2022/08/18 10:27:31;;;;;;;11.90;10.70;;;24.30;68.40;;;;;;6187013;23;20210;-87
2022/08/18 10:29:57;;;;;;;12.45;11.15;;;24.30;68.50;;;;;;6160506;23;20151;-87
2022/08/18 10:32:34;;;;;;;13.73;12.13;;;24.40;68.40;;;;;;6160695;23;20594;-87
2022/08/18 10:35:01;;;;;;;12.98;10.98;;;24.40;68.30;;;;;;6161247;23;20666;-86
2022/08/18 10:37:33;;;;;;;12.93;11.55;;;24.40;68.30;;;;;;6136696;23;20150;-87
2022/08/18 10:40:04;;;;;;;13.32;11.55;;;24.40;68.20;;;;;;6144252;23;20193;-86
2022/08/18 10:42:33;;;;;;;13.90;11.10;;;24.40;68.00;;;;;;6168566;23;20166;-87
2022/08/18 10:45:18;;;;;;;13.35;11.40;;;24.50;68.10;;;;;;6071582;23;20212;-87
2022/08/18 10:47:56;;;;;;;13.27;10.93;;;24.40;67.90;;;;;;6096019;23;20136;-86
2022/08/18 10:50:23;;;;;;;12.73;10.93;;;24.50;68.10;;;;;;6040869;23;20154;-87
2022/08/18 10:53:25;;;;;;;12.40;10.88;;;24.60;67.80;;;;;;6016625;23;20249;-87
2022/08/18 10:56:15;;;;;;;12.98;11.68;;;24.60;67.60;;;;;;6023215;23;20169;-87
2022/08/18 10:58:59;;;;;;;12.07;10.88;;;24.60;67.50;;;;;;5958063;24;20160;-87
2022/08/18 11:01:49;;;;;;;12.40;10.85;;;24.60;67.60;;;;;;5935587;24;20151;-88
2022/08/18 11:04:30;;;;;;;14.05;11.20;;;24.60;68.50;;;;;;5958381;24;20620;-87
2022/08/18 11:07:04;;;;;;;13.07;11.35;;;24.60;67.80;;;;;;5936066;24;20147;-87
2022/08/18 11:09:33;;;;;;;14.38;11.15;;;24.50;67.60;;;;;;5935153;24;20202;-87
2022/08/18 11:12:04;;;;;;;12.57;11.32;;;24.60;67.80;;;;;;5875610;24;20165;-87
2022/08/18 11:15:15;;;;;;;14.65;11.38;;;24.60;67.80;;;;;;5856515;24;20256;-87
2022/08/18 11:17:58;;;;;;;11.82;10.73;;;24.50;67.80;;;;;;5983714;24;20150;-87
2022/08/18 11:20:28;;;;;;;12.63;11.32;;;24.60;67.90;;;;;;5985773;23;20148;-87
2022/08/18 11:22:57;;;;;;;12.50;11.20;;;24.60;67.70;;;;;;5963261;23;20186;-87
2022/08/18 11:25:27;;;;;;;15.55;11.80;;;24.60;67.70;;;;;;5963755;23;20166;-88
2022/08/18 11:27:56;;;;;;;12.88;11.48;;;24.70;67.60;;;;;;5963229;23;20165;-88
2022/08/18 11:30:25;;;;;;;12.45;11.10;;;24.80;67.40;;;;;;6057198;23;20279;-87
2022/08/18 11:32:55;;;;;;;11.95;10.75;;;24.70;67.30;;;;;;6071428;23;20541;-87
2022/08/18 11:35:26;;;;;;;12.75;10.85;;;24.70;67.40;;;;;;6047315;23;20167;-88
2022/08/18 11:37:57;;;;;;;13.25;11.10;;;24.70;67.60;;;;;;6048364;23;20165;-87
2022/08/18 11:40:38;;;;;;;12.40;11.10;;;24.70;67.60;;;;;;6071169;23;20524;-87
2022/08/18 11:43:15;;;;;;;13.32;11.93;;;24.80;67.30;;;;;;6146378;23;20263;-87
2022/08/18 11:45:56;;;;;;;12.95;10.57;;;24.80;67.30;;;;;;6135786;23;20474;-87
2022/08/18 11:48:44;;;;;;;12.45;11.15;;;24.90;67.20;;;;;;6160569;23;20214;-86
2022/08/18 11:51:19;;;;;;;14.05;11.18;;;24.80;67.30;;;;;;6135960;23;20481;-87
2022/08/18 11:54:20;;;;;;;12.38;11.18;;;24.90;67.30;;;;;;6160111;23;20139;-87
2022/08/18 11:56:50;;;;;;;12.38;10.93;;;24.80;67.30;;;;;;6129901;23;20162;-87
2022/08/18 11:59:34;;;;;;;12.15;10.95;;;24.90;67.40;;;;;;6104742;23;20162;-87
2022/08/18 12:02:00;;;;;;;12.88;11.50;;;24.80;67.20;;;;;;6105209;23;20183;-87
2022/08/18 12:04:33;;;;;;;12.23;10.90;;;24.90;67.20;;;;;;6081211;23;20587;-87
2022/08/18 12:07:15;;;;;;;11.90;10.57;;;24.90;67.00;;;;;;6100512;23;20156;-86
2022/08/18 12:10:20;;;;;;;13.30;11.95;;;25.00;67.20;;;;;;6042018;23;20201;-87
2022/08/18 12:12:58;;;;;;;12.25;10.85;;;25.10;66.90;;;;;;6042138;23;20153;-87
2022/08/18 12:15:35;;;;;;;12.55;11.25;;;25.10;66.80;;;;;;6042702;23;20209;-87
2022/08/18 12:18:02;;;;;;;11.50;10.40;;;25.00;66.90;;;;;;5997266;23;20153;-87
2022/08/18 12:20:37;;;;;;;13.65;11.43;;;25.00;66.90;;;;;;5995924;23;20157;-87
2022/08/18 12:23:07;;;;;;;13.07;11.57;;;25.10;66.90;;;;;;6043582;23;20176;-87
2022/08/18 12:25:44;;;;;;;12.70;11.40;;;25.10;67.00;;;;;;5998627;23;20240;-88
2022/08/18 12:28:13;;;;;;;12.27;10.77;;;25.10;67.00;;;;;;6067779;23;20153;-86
2022/08/18 12:33:38;;;;;;;12.90;11.60;;;25.10;67.00;;;;;;5934958;24;20167;-87
2022/08/18 12:36:22;;;;;;;12.05;10.85;;;25.10;66.90;;;;;;5954791;24;20148;-88
2022/08/18 12:38:48;;;;;;;12.07;10.88;;;25.10;67.00;;;;;;5978011;24;20626;-87
2022/08/18 12:41:17;;;;;;;12.73;11.45;;;25.10;67.10;;;;;;5981955;24;20610;-87
2022/08/18 12:43:49;;;;;;;13.25;11.40;;;25.10;67.20;;;;;;5935753;24;20182;-88
2022/08/18 12:46:37;;;;;;;;;;;;;;;;;;;;;
2022/08/18 12:49:21;;;;;;;13.40;12.00;;;25.00;67.40;;;;;;5929861;24;20247;-88
2022/08/18 12:51:47;;;;;;;13.73;11.60;;;25.00;67.60;;;;;;5930553;24;20220;-87
2022/08/18 12:54:13;;;;;;;12.88;11.60;;;24.90;68.00;;;;;;5930006;24;20163;-87
2022/08/18 12:56:39;;;;;;;13.75;12.27;;;25.00;67.60;;;;;;5930656;24;20163;-88
2022/08/18 12:59:16;;;;;;;12.88;11.57;;;24.90;67.90;;;;;;5930280;24;20171;-87
2022/08/18 13:01:46;;;;;;;12.75;11.45;;;24.90;68.00;;;;;;5931413;24;20655;-88
2022/08/18 13:04:35;;;;;;;13.32;11.90;;;24.90;68.00;;;;;;5994971;23;20480;-87
2022/08/18 13:07:02;;;;;;;13.23;11.93;;;25.00;68.00;;;;;;6085185;23;20153;-88
2022/08/18 13:09:33;;;;;;;13.30;11.98;;;24.90;68.10;;;;;;5985834;23;20213;-87
2022/08/18 13:12:01;;;;;;;13.63;12.23;;;24.90;68.30;;;;;;6009285;23;20162;-87
2022/08/18 13:14:54;;;;;;;12.80;11.52;;;24.90;68.50;;;;;;6016876;23;20463;-87
2022/08/18 13:17:21;;;;;;;12.88;11.57;;;24.90;68.70;;;;;;6002718;23;20221;-88
2022/08/18 13:19:50;;;;;;;14.05;12.55;;;24.90;68.70;;;;;;6019695;23;20153;-87
2022/08/18 13:22:18;;;;;;;13.95;12.52;;;24.80;68.70;;;;;;6020340;23;20181;-87
2022/08/18 13:24:59;;;;;;;13.13;11.82;;;24.80;68.90;;;;;;6020525;23;20163;-87
2022/08/18 13:27:31;;;;;;;13.80;12.07;;;24.90;68.90;;;;;;6022906;23;20510;-87